createdAt,value
2023-04-05T00:00:36.517Z,3.70
2023-04-05T00:03:10.172Z,3.38
2023-04-05T00:05:43.047Z,4.20
2023-04-05T00:08:23.702Z,3.63
2023-04-05T00:10:56.516Z,4.15
2023-04-05T00:16:03.335Z,3.90
2023-04-05T00:18:38.333Z,4.63
2023-04-05T00:21:11.355Z,3.97
2023-04-05T00:23:45.128Z,4.18
2023-04-05T00:26:18.487Z,4.00
2023-04-05T00:28:55.699Z,3.70
2023-04-05T00:31:30.528Z,3.92
2023-04-05T00:34:05.909Z,3.45
2023-04-05T00:36:38.581Z,3.80
2023-04-05T00:39:11.400Z,3.92
2023-04-05T00:41:46.273Z,3.75
2023-04-05T00:44:21.717Z,4.00
2023-04-05T00:46:54.688Z,3.95
2023-04-05T00:49:27.631Z,4.30
2023-04-05T00:54:34.353Z,3.95
2023-04-05T00:57:07.690Z,4.25
2023-04-05T00:59:42.051Z,4.05
2023-04-05T01:02:19.169Z,3.83
2023-04-05T01:05:01.529Z,3.80
2023-04-05T01:07:42.216Z,3.55
2023-04-05T01:10:18.974Z,3.80
2023-04-05T01:12:52.307Z,4.57
2023-04-05T01:15:26.322Z,3.85
2023-04-05T01:18:02.132Z,4.32
2023-04-05T01:20:40.738Z,4.15
2023-04-05T01:23:31.138Z,4.32
2023-04-05T01:26:46.689Z,3.78
2023-04-05T01:29:46.057Z,4.40
2023-04-05T01:32:41.011Z,4.13
2023-04-05T01:35:23.340Z,4.25
2023-04-05T01:38:02.365Z,3.88
2023-04-05T01:40:38.607Z,4.28
2023-04-05T01:43:15.320Z,4.40
2023-04-05T01:45:49.425Z,4.40
2023-04-05T01:48:22.223Z,4.45
2023-04-05T01:50:54.916Z,5.38
2023-04-05T01:53:27.827Z,5.28
2023-04-05T01:58:34.691Z,4.07
2023-04-05T02:03:42.100Z,4.72
2023-04-05T02:08:47.967Z,4.45
2023-04-05T02:11:22.966Z,4.60
2023-04-05T02:16:33.125Z,5.50
2023-04-05T02:19:05.991Z,4.30
2023-04-05T02:21:39.063Z,4.70
2023-04-05T02:24:11.743Z,5.30
2023-04-05T02:26:44.422Z,5.18
2023-04-05T02:29:17.228Z,4.32
2023-04-05T02:31:51.461Z,4.68
2023-04-05T02:34:24.234Z,4.78
2023-04-05T02:36:57.126Z,5.35
2023-04-05T02:42:02.884Z,4.07
2023-04-05T02:44:35.735Z,4.85
2023-04-05T02:49:42.985Z,4.40
2023-04-05T02:54:51.558Z,4.22
2023-04-05T02:57:30.106Z,4.60
2023-04-05T03:00:13.160Z,5.28
2023-04-05T03:02:47.412Z,4.57
2023-04-05T03:05:20.946Z,4.95
2023-04-05T03:07:58.156Z,4.30
2023-04-05T03:10:36.134Z,5.13
2023-04-05T03:13:18.983Z,5.00
2023-04-05T03:15:54.838Z,4.97
2023-04-05T03:18:30.633Z,4.97
2023-04-05T03:21:12.383Z,4.13
2023-04-05T03:23:56.244Z,4.88
2023-04-05T03:26:34.749Z,4.68
2023-04-05T03:29:07.793Z,4.68
2023-04-05T03:31:43.578Z,5.35
2023-04-05T03:34:18.001Z,4.68
2023-04-05T03:36:52.565Z,6.10
2023-04-05T03:39:54.699Z,4.65
2023-04-05T03:42:27.970Z,5.00
2023-04-05T03:45:01.576Z,4.88
2023-04-05T03:47:34.874Z,4.25
2023-04-05T03:50:12.432Z,4.53
2023-04-05T03:52:45.217Z,6.22
2023-04-05T03:55:18.825Z,5.25
2023-04-05T03:57:53.623Z,4.65
2023-04-05T04:00:34.167Z,5.35
2023-04-05T04:03:21.664Z,4.20
2023-04-05T04:05:59.457Z,4.63
2023-04-05T04:08:34.055Z,4.78
2023-04-05T04:11:07.469Z,4.75
2023-04-05T04:13:43.570Z,4.65
2023-04-05T04:16:27.383Z,4.78
2023-04-05T04:19:15.641Z,4.57
2023-04-05T04:22:10.304Z,4.68
2023-04-05T04:24:54.742Z,4.93
2023-04-05T04:27:46.749Z,5.07
2023-04-05T04:30:35.217Z,4.72
2023-04-05T04:33:38.056Z,4.78
2023-04-05T04:36:34.633Z,4.60
2023-04-05T04:39:48.781Z,4.68
2023-04-05T04:43:00.263Z,4.53
2023-04-05T04:45:56.163Z,4.78
2023-04-05T04:48:46.682Z,4.78
2023-04-05T04:51:31.472Z,4.65
2023-04-05T04:54:04.487Z,5.00
2023-04-05T04:56:38.490Z,5.78
2023-04-05T04:59:11.228Z,7.65
2023-04-05T05:01:46.600Z,6.32
2023-04-05T05:04:19.472Z,6.53
2023-04-05T05:09:26.425Z,6.38
2023-04-05T05:12:04.798Z,6.05
2023-04-05T05:14:37.545Z,6.45
2023-04-05T05:17:10.586Z,6.32
2023-04-05T05:19:43.525Z,6.13
2023-04-05T05:22:16.261Z,7.63
2023-04-05T05:24:49.147Z,6.45
2023-04-05T05:27:23.381Z,6.13
2023-04-05T05:29:56.740Z,6.22
2023-04-05T05:32:31.958Z,7.00
2023-04-05T05:35:05.361Z,6.82
2023-04-05T05:37:40.003Z,6.55
2023-04-05T05:40:13.612Z,6.05
2023-04-05T05:42:47.866Z,5.90
2023-04-05T05:45:20.808Z,5.47
2023-04-05T05:50:26.496Z,6.45
2023-04-05T06:01:30.765Z,6.35
2023-04-05T06:04:03.837Z,6.20
2023-04-05T06:06:37.901Z,6.03
2023-04-05T06:09:11.119Z,6.85
2023-04-05T06:11:55.277Z,5.70
2023-04-05T06:14:30.064Z,6.10
2023-04-05T06:17:04.292Z,4.95
2023-04-05T06:19:38.417Z,6.10
2023-04-05T06:22:11.206Z,5.70
2023-04-05T06:24:44.087Z,6.88
2023-04-05T06:29:49.888Z,6.43
2023-04-05T06:32:24.349Z,7.25
2023-04-05T06:34:57.099Z,6.53
2023-04-05T06:37:29.938Z,7.05
2023-04-05T06:40:02.872Z,5.95
2023-04-05T06:45:12.324Z,6.70
2023-04-05T06:47:46.760Z,6.25
2023-04-05T06:50:22.049Z,7.15
2023-04-05T06:55:31.146Z,6.20
2023-04-05T06:58:03.988Z,6.10
2023-04-05T07:00:37.416Z,7.45
2023-04-05T07:03:11.662Z,8.95
2023-04-05T07:05:52.034Z,6.97
2023-04-05T07:08:25.030Z,7.15
2023-04-05T07:13:31.159Z,6.40
2023-04-05T07:16:04.648Z,7.53
2023-04-05T07:18:38.810Z,8.45
2023-04-05T07:21:12.124Z,8.90
2023-04-05T07:26:18.023Z,9.35
2023-04-05T07:28:50.807Z,11.05
2023-04-05T07:31:23.674Z,8.80
2023-04-05T07:36:31.798Z,10.48
2023-04-05T07:39:05.328Z,12.48
2023-04-05T07:41:38.219Z,9.20
2023-04-05T07:44:11.886Z,11.10
2023-04-05T07:46:48.973Z,11.57
2023-04-05T07:49:27.699Z,10.68
2023-04-05T07:52:00.532Z,11.55
2023-04-05T07:54:34.253Z,11.27
2023-04-05T07:57:07.341Z,10.30
2023-04-05T07:59:40.266Z,11.15
2023-04-05T08:04:49.155Z,18.02
2023-04-05T08:07:22.049Z,20.50
2023-04-05T08:09:57.615Z,23.88
2023-04-05T08:12:32.052Z,23.05
2023-04-05T08:15:05.432Z,22.08
2023-04-05T08:17:38.454Z,24.35
2023-04-05T08:20:13.990Z,22.23
2023-04-05T08:22:46.698Z,24.35
2023-04-05T08:25:19.492Z,24.83
2023-04-05T08:27:52.449Z,23.52
2023-04-05T08:30:25.395Z,24.50
2023-04-05T08:35:32.407Z,22.70
2023-04-05T08:38:05.613Z,22.73
2023-04-05T08:40:42.587Z,22.10
2023-04-05T08:43:24.017Z,24.58
2023-04-05T08:45:59.744Z,22.60
2023-04-05T08:48:35.033Z,22.92
2023-04-05T08:51:09.470Z,20.08
2023-04-05T08:53:44.926Z,21.95
2023-04-05T08:56:22.362Z,21.08
2023-04-05T08:59:01.485Z,22.08
2023-04-05T09:01:37.630Z,20.80
2023-04-05T09:04:13.172Z,20.67
2023-04-05T09:06:48.943Z,21.10
2023-04-05T09:09:23.135Z,19.85
2023-04-05T09:11:57.124Z,19.85
2023-04-05T09:14:31.379Z,20.95
2023-04-05T09:17:04.775Z,20.80
2023-04-05T09:19:37.836Z,19.98
2023-04-05T09:24:47.303Z,19.13
2023-04-05T09:27:23.487Z,17.92
2023-04-05T09:30:22.459Z,18.05
2023-04-05T09:32:56.178Z,16.13
2023-04-05T09:35:31.321Z,18.20
2023-04-05T09:38:06.179Z,17.77
2023-04-05T09:40:45.463Z,14.88
2023-04-05T09:43:39.448Z,17.15
2023-04-05T09:46:32.195Z,16.30
2023-04-05T09:49:07.116Z,13.07
2023-04-05T09:51:40.438Z,12.80
2023-04-05T09:54:17.711Z,14.48
2023-04-05T09:56:57.584Z,15.38
2023-04-05T09:59:31.421Z,14.15
2023-04-05T10:02:05.643Z,12.20
2023-04-05T10:04:42.204Z,13.45
2023-04-05T10:07:17.788Z,11.90
2023-04-05T10:09:51.979Z,11.50
2023-04-05T10:12:27.691Z,11.23
2023-04-05T10:15:03.692Z,12.00
2023-04-05T10:17:40.704Z,12.02
2023-04-05T10:20:16.995Z,12.10
2023-04-05T10:22:58.640Z,12.82
2023-04-05T10:25:45.081Z,12.00
2023-04-05T10:28:26.356Z,11.07
2023-04-05T10:31:10.551Z,9.77
2023-04-05T10:33:47.433Z,11.15
2023-04-05T10:36:27.041Z,9.43
2023-04-05T10:39:04.521Z,9.23
2023-04-05T10:41:43.982Z,10.20
2023-04-05T10:44:25.882Z,10.50
2023-04-05T10:47:00.516Z,9.15
2023-04-05T10:49:38.092Z,9.45
2023-04-05T10:52:11.190Z,11.30
2023-04-05T10:54:45.464Z,11.77
2023-04-05T10:57:21.448Z,10.13
2023-04-05T10:59:55.239Z,9.40
2023-04-05T11:02:30.216Z,10.38
2023-04-05T11:05:05.887Z,10.48
2023-04-05T11:07:44.992Z,10.38
2023-04-05T11:10:19.378Z,10.23
2023-04-05T11:13:10.631Z,9.05
2023-04-05T11:15:43.601Z,9.90
2023-04-05T11:18:23.334Z,9.23
2023-04-05T11:21:09.270Z,10.05
2023-04-05T11:24:04.498Z,10.77
2023-04-05T11:26:57.496Z,13.77
2023-04-05T11:29:54.420Z,13.82
2023-04-05T11:32:40.618Z,15.10
2023-04-05T11:35:16.002Z,13.43
2023-04-05T11:37:56.303Z,12.75
2023-04-05T11:40:30.912Z,12.50
2023-04-05T11:43:06.000Z,12.63
2023-04-05T11:45:41.831Z,13.77
2023-04-05T11:48:16.725Z,13.50
2023-04-05T11:50:52.327Z,13.85
2023-04-05T11:53:25.366Z,12.88
2023-04-05T11:56:08.328Z,11.95
2023-04-05T11:58:41.158Z,12.25
2023-04-05T12:01:15.575Z,12.38
2023-04-05T12:03:55.117Z,14.38
2023-04-05T12:06:28.020Z,13.93
2023-04-05T12:09:00.928Z,12.95
2023-04-05T12:14:06.202Z,13.27
2023-04-05T12:16:50.992Z,13.18
2023-04-05T12:19:24.004Z,12.95
2023-04-05T12:24:30.560Z,14.65
2023-04-05T12:27:03.526Z,13.23
2023-04-05T12:32:12.065Z,13.05
2023-04-05T12:34:48.847Z,12.88
2023-04-05T12:37:21.977Z,11.82
2023-04-05T12:39:55.653Z,10.20
2023-04-05T12:42:33.818Z,9.10
2023-04-05T12:45:10.336Z,10.32
2023-04-05T12:47:59.179Z,8.35
2023-04-05T12:50:32.649Z,9.65
2023-04-05T12:53:07.731Z,7.72
2023-04-05T12:55:48.834Z,10.30
2023-04-05T12:58:22.977Z,8.38
2023-04-05T13:00:55.862Z,7.82
2023-04-05T13:06:02.854Z,6.18
2023-04-05T13:08:35.796Z,8.43
2023-04-05T13:13:42.562Z,5.28
2023-04-05T13:16:15.580Z,6.82
2023-04-05T13:18:49.912Z,8.70
2023-04-05T13:21:22.746Z,6.80
2023-04-05T13:23:55.688Z,7.22
2023-04-05T13:29:01.876Z,8.20
2023-04-05T13:31:34.738Z,6.53
2023-04-05T13:36:41.436Z,8.20
2023-04-05T13:39:14.109Z,7.95
2023-04-05T13:41:46.882Z,6.35
2023-04-05T13:44:19.653Z,5.72
2023-04-05T13:46:52.393Z,5.45
2023-04-05T13:49:26.539Z,5.30
2023-04-05T13:51:59.250Z,8.40
2023-04-05T13:54:31.797Z,9.20
2023-04-05T13:57:04.614Z,8.38
2023-04-05T13:59:37.596Z,10.10
2023-04-05T14:02:11.647Z,9.25
2023-04-05T14:04:45.745Z,9.63
2023-04-05T14:07:18.523Z,8.32
2023-04-05T14:09:51.503Z,10.18
2023-04-05T14:12:24.622Z,9.35
2023-04-05T14:14:57.334Z,9.02
2023-04-05T14:17:30.429Z,8.68
2023-04-05T14:20:04.893Z,8.82
2023-04-05T14:22:37.610Z,10.35
2023-04-05T14:25:11.065Z,8.10
2023-04-05T14:27:43.827Z,8.20
2023-04-05T14:30:16.773Z,8.20
2023-04-05T14:32:49.716Z,8.60
2023-04-05T14:37:56.473Z,8.52
2023-04-05T14:40:29.234Z,8.13
2023-04-05T14:43:02.078Z,8.88
2023-04-05T14:48:07.597Z,9.57
2023-04-05T14:50:42.315Z,8.00
2023-04-05T14:53:15.275Z,7.30
2023-04-05T14:58:27.938Z,10.17
2023-04-05T15:01:00.973Z,10.48
2023-04-05T15:03:34.035Z,9.23
2023-04-05T15:06:08.471Z,10.27
2023-04-05T15:08:41.408Z,8.93
2023-04-05T15:11:14.791Z,7.70
2023-04-05T15:13:47.515Z,8.68
2023-04-05T15:16:20.333Z,8.70
2023-04-05T15:21:30.032Z,7.30
2023-04-05T15:24:03.150Z,7.72
2023-04-05T15:26:35.951Z,8.80
2023-04-05T15:29:08.646Z,9.50
2023-04-05T15:31:41.967Z,9.40
2023-04-05T15:34:15.493Z,8.18
2023-04-05T15:36:51.479Z,6.13
2023-04-05T15:39:25.179Z,7.95
2023-04-05T15:41:58.316Z,7.38
2023-04-05T15:44:31.806Z,6.78
2023-04-05T15:47:04.568Z,8.65
2023-04-05T15:49:37.393Z,7.30
2023-04-05T15:54:45.314Z,7.07
2023-04-05T15:57:18.045Z,8.13
2023-04-05T15:59:50.761Z,8.65
2023-04-05T16:02:23.548Z,9.15
2023-04-05T16:07:30.458Z,9.43
2023-04-05T16:10:04.365Z,11.57
2023-04-05T16:12:37.530Z,8.60
2023-04-05T16:15:11.116Z,8.90
2023-04-05T16:17:43.966Z,10.13
2023-04-05T16:20:17.448Z,10.27
2023-04-05T16:22:52.676Z,12.65
2023-04-05T16:25:25.480Z,9.93
2023-04-05T16:27:58.508Z,9.32
2023-04-05T16:30:31.766Z,10.10
2023-04-05T16:33:04.666Z,9.93
2023-04-05T16:38:11.672Z,11.65
2023-04-05T16:40:45.018Z,12.05
2023-04-05T16:43:18.175Z,10.48
2023-04-05T16:45:54.341Z,13.25
2023-04-05T16:48:27.782Z,10.18
2023-04-05T16:51:00.828Z,12.82
2023-04-05T16:53:35.107Z,10.52
2023-04-05T16:56:08.239Z,11.38
2023-04-05T16:58:41.001Z,10.30
2023-04-05T17:01:13.847Z,9.60
2023-04-05T17:03:47.131Z,9.63
2023-04-05T17:06:21.037Z,10.27
2023-04-05T17:08:55.138Z,9.93
2023-04-05T17:11:28.360Z,11.35
2023-04-05T17:14:01.307Z,10.15
2023-04-05T17:19:06.676Z,11.10
2023-04-05T17:21:39.413Z,12.43
2023-04-05T17:24:13.572Z,11.85
2023-04-05T17:26:46.740Z,10.10
2023-04-05T17:29:19.718Z,9.73
2023-04-05T17:31:52.462Z,9.70
2023-04-05T17:34:25.418Z,10.75
2023-04-05T17:39:32.240Z,10.17
2023-04-05T17:42:05.029Z,9.43
2023-04-05T17:44:37.838Z,12.35
2023-04-05T17:47:10.851Z,11.02
2023-04-05T17:49:43.829Z,10.63
2023-04-05T17:52:16.731Z,12.07
2023-04-05T17:57:25.420Z,11.20
2023-04-05T18:02:32.657Z,10.95
2023-04-05T18:05:05.750Z,11.65
2023-04-05T18:10:13.436Z,11.45
2023-04-05T18:12:46.199Z,13.50
2023-04-05T18:15:19.812Z,11.85
2023-04-05T18:17:52.758Z,12.30
2023-04-05T18:22:59.996Z,13.55
2023-04-05T18:25:34.107Z,14.07
2023-04-05T18:28:19.426Z,13.02
2023-04-05T18:30:55.119Z,14.32
2023-04-05T18:36:00.465Z,13.03
2023-04-05T18:38:33.373Z,13.07
2023-04-05T18:43:42.212Z,12.60
2023-04-05T18:48:54.465Z,12.30
2023-04-05T18:51:27.568Z,15.65
2023-04-05T18:54:00.564Z,11.57
2023-04-05T18:56:34.864Z,12.98
2023-04-05T18:59:07.940Z,12.52
2023-04-05T19:01:43.061Z,14.88
2023-04-05T19:04:16.511Z,13.38
2023-04-05T19:06:49.453Z,14.18
2023-04-05T19:11:57.696Z,13.50
2023-04-05T19:14:30.487Z,12.00
2023-04-05T19:17:03.414Z,12.02
2023-04-05T19:19:36.351Z,12.30
2023-04-05T19:22:11.197Z,13.30
2023-04-05T19:24:44.025Z,11.43
2023-04-05T19:27:18.186Z,13.32
2023-04-05T19:29:51.044Z,13.48
2023-04-05T19:32:24.230Z,13.40
2023-04-05T19:34:59.250Z,12.65
2023-04-05T19:37:32.170Z,15.32
2023-04-05T19:42:47.353Z,12.75
2023-04-05T19:45:25.810Z,15.00
2023-04-05T19:48:02.698Z,12.65
2023-04-05T19:50:49.936Z,15.32
2023-04-05T19:53:44.124Z,11.23
2023-04-05T19:56:20.306Z,13.77
2023-04-05T19:58:59.382Z,14.20
2023-04-05T20:01:36.558Z,14.07
2023-04-05T20:04:13.126Z,12.45
2023-04-05T20:06:53.070Z,12.65
2023-04-05T20:09:28.849Z,12.57
2023-04-05T20:12:03.604Z,16.33
2023-04-05T20:14:42.404Z,15.43
2023-04-05T20:17:19.025Z,15.77
2023-04-05T20:19:57.652Z,14.30
2023-04-05T20:22:36.146Z,14.50
2023-04-05T20:25:37.590Z,13.63
2023-04-05T20:28:34.939Z,15.23
2023-04-05T20:31:11.245Z,14.18
2023-04-05T20:33:49.445Z,14.30
2023-04-05T20:36:24.605Z,13.82
2023-04-05T20:38:57.964Z,12.63
2023-04-05T20:41:33.995Z,14.13
2023-04-05T20:44:06.990Z,15.15
2023-04-05T20:49:13.914Z,12.95
2023-04-05T20:51:47.208Z,13.27
2023-04-05T20:54:21.124Z,13.23
2023-04-05T20:56:54.031Z,13.52
2023-04-05T20:59:27.363Z,15.73
2023-04-05T21:02:01.863Z,16.40
2023-04-05T21:04:34.707Z,16.52
2023-04-05T21:09:40.592Z,14.88
2023-04-05T21:14:46.330Z,17.27
2023-04-05T21:17:20.520Z,16.33
2023-04-05T21:19:54.134Z,15.43
2023-04-05T21:22:27.039Z,15.18
2023-04-05T21:24:59.864Z,15.75
2023-04-05T21:30:06.353Z,19.10
2023-04-05T21:32:40.754Z,16.25
2023-04-05T21:35:13.827Z,16.73
2023-04-05T21:37:46.631Z,16.02
2023-04-05T21:40:19.679Z,16.23
2023-04-05T21:42:52.650Z,14.20
2023-04-05T21:47:59.888Z,16.15
2023-04-05T21:50:32.675Z,14.65
2023-04-05T21:53:07.326Z,17.17
2023-04-05T21:55:40.219Z,13.55
2023-04-05T21:58:12.986Z,13.55
2023-04-05T22:03:19.912Z,14.17
2023-04-05T22:05:52.706Z,13.63
2023-04-05T22:08:26.785Z,12.52
2023-04-05T22:10:59.622Z,14.73
2023-04-05T22:13:32.284Z,12.57
2023-04-05T22:16:05.278Z,13.63
2023-04-05T22:18:39.941Z,14.70
2023-04-05T22:21:12.693Z,13.10
2023-04-05T22:23:45.721Z,12.23
2023-04-05T22:28:51.072Z,12.20
2023-04-05T22:31:23.817Z,11.93
2023-04-05T22:33:58.035Z,13.93
2023-04-05T22:36:31.499Z,13.02
2023-04-05T22:39:04.432Z,12.68
2023-04-05T22:44:10.492Z,12.40
2023-04-05T22:46:43.244Z,12.70
2023-04-05T22:49:17.704Z,11.32
2023-04-05T22:51:50.344Z,12.93
2023-04-05T22:54:23.253Z,13.70
2023-04-05T22:59:28.844Z,13.30
2023-04-05T23:02:01.573Z,12.45
2023-04-05T23:04:35.763Z,13.10
2023-04-05T23:07:08.685Z,12.57
2023-04-05T23:09:41.450Z,14.23
2023-04-05T23:12:14.261Z,11.45
2023-04-05T23:17:20.057Z,13.77
2023-04-05T23:19:54.717Z,13.15
2023-04-05T23:22:27.533Z,13.45
2023-04-05T23:25:02.650Z,11.98
2023-04-05T23:27:35.328Z,12.95
2023-04-05T23:30:09.301Z,12.32
2023-04-05T23:32:42.087Z,12.48
2023-04-05T23:35:16.574Z,11.77
2023-04-05T23:37:49.457Z,11.98
2023-04-05T23:40:22.209Z,12.57
2023-04-05T23:42:57.034Z,13.13
2023-04-05T23:45:29.904Z,12.43
2023-04-05T23:50:36.712Z,11.33
2023-04-05T23:53:09.430Z,11.35
2023-04-05T23:55:42.175Z,10.95
2023-04-05T23:58:15.061Z,11.68
